Time,TemperatureF,DewpointF,PressureIn,WindDirection,WindDirectionDegrees,WindSpeedMPH,WindSpeedGustMPH,Humidity,HourlyPrecipIn,Conditions,Clouds,dailyrainin,SoftwareType,DateUTC
2013-08-15 11:37:00,69.6,32.2,29.95,WNW,302,1.0,9.0,25,0.00,,,0.00,Wunderground v.1.15,2013-08-15 17:37:00,
2013-08-15 11:43:00,70.3,28.5,29.95,WNW,293,1.0,1.0,21,0.00,,,0.00,Wunderground v.1.15,2013-08-15 17:43:00,
2013-08-15 11:47:00,70.3,27.3,29.95,West,279,1.0,1.0,20,0.00,,,0.00,Wunderground v.1.15,2013-08-15 17:47:00,
2013-08-15 11:53:00,69.9,29.3,29.95,WNW,300,1.0,1.0,22,0.00,,,0.00,Wunderground v.1.15,2013-08-15 17:53:00,
2013-08-15 11:57:00,69.8,32.4,29.95,ENE,63,0.0,1.0,25,0.00,,,0.00,Wunderground v.1.15,2013-08-15 17:57:00,
2013-08-15 12:02:00,70.1,28.3,29.95,NNW,331,1.0,1.0,21,0.00,,,0.00,Wunderground v.1.15,2013-08-15 18:02:00,
2013-08-15 12:08:00,69.1,26.3,29.95,WNW,288,1.0,1.0,20,0.00,,,0.00,Wunderground v.1.15,2013-08-15 18:08:00,
2013-08-15 12:17:00,67.4,26.1,29.95,NNW,335,1.0,1.0,21,0.00,,,0.00,Wunderground v.1.15,2013-08-15 18:17:00,
2013-08-15 12:23:00,69.1,26.3,29.95,NW,315,1.0,1.0,20,0.00,,,0.00,Wunderground v.1.15,2013-08-15 18:23:00,
2013-08-15 12:33:00,69.6,26.7,29.95,WSW,242,1.0,1.0,20,0.00,,,0.00,Wunderground v.1.15,2013-08-15 18:33:00,
2013-08-15 12:38:00,67.3,26.0,29.95,WNW,299,1.0,1.0,21,0.00,,,0.00,Wunderground v.1.15,2013-08-15 18:38:00,
2013-08-15 12:47:00,71.1,25.4,29.95,WNW,290,1.0,3.0,18,0.00,,,0.00,Wunderground v.1.15,2013-08-15 18:47:00,
2013-08-15 12:57:00,71.3,29.3,29.94,West,271,2.0,2.0,21,0.00,,,0.00,Wunderground v.1.15,2013-08-15 18:57:00,
2013-08-15 13:02:00,71.3,28.1,29.94,WNW,294,1.0,1.0,20,0.00,,,0.00,Wunderground v.1.15,2013-08-15 19:02:00,
2013-08-15 13:08:00,72.5,29.1,29.94,WNW,297,1.0,1.0,20,0.00,,,0.00,Wunderground v.1.15,2013-08-15 19:08:00,
2013-08-15 13:18:00,72.1,30.0,29.94,West,267,1.0,1.0,21,0.00,,,0.00,Wunderground v.1.15,2013-08-15 19:18:00,
2013-08-15 13:28:00,70.3,24.8,29.93,ESE,111,0.0,2.0,18,0.00,,,0.00,Wunderground v.1.15,2013-08-15 19:28:00,
2013-08-15 13:33:00,71.1,26.7,29.93,West,271,0.0,0.0,19,0.00,,,0.00,Wunderground v.1.15,2013-08-15 19:33:00,
2013-08-15 13:42:00,72.5,29.1,29.94,WNW,286,0.0,2.0,20,0.00,,,0.00,Wunderground v.1.15,2013-08-15 19:42:00,
2013-08-15 13:47:00,72.3,26.4,29.94,West,264,1.0,2.0,18,0.00,,,0.00,Wunderground v.1.15,2013-08-15 19:47:00,
2013-08-15 13:52:00,72.0,26.1,29.93,NW,309,1.0,1.0,18,0.00,,,0.00,Wunderground v.1.15,2013-08-15 19:52:00,
2013-08-15 13:58:00,71.6,30.7,29.93,WNW,295,2.0,2.0,22,0.00,,,0.00,Wunderground v.1.15,2013-08-15 19:58:00,
2013-08-15 14:17:00,67.8,26.4,29.92,WNW,284,1.0,1.0,21,0.00,,,0.00,Wunderground v.1.15,2013-08-15 20:17:00,
2013-08-15 14:23:00,70.9,29.0,29.92,West,281,0.0,0.0,21,0.00,,,0.00,Wunderground v.1.15,2013-08-15 20:23:00,
2013-08-15 14:33:00,69.9,28.2,29.92,West,259,1.0,1.0,21,0.00,,,0.00,Wunderground v.1.15,2013-08-15 20:33:00,
2013-08-15 14:52:00,73.2,28.4,29.92,West,272,2.0,3.0,19,0.00,,,0.00,Wunderground v.1.15,2013-08-15 20:52:00,
2013-08-15 14:57:00,72.7,31.6,29.92,North,360,2.0,3.0,22,0.00,,,0.00,Wunderground v.1.15,2013-08-15 20:57:00,
2013-08-15 15:03:00,72.8,29.4,29.92,West,277,1.0,4.0,20,0.00,,,0.00,Wunderground v.1.15,2013-08-15 21:03:00,
2013-08-15 15:13:00,73.0,29.5,29.91,West,270,2.0,2.0,20,0.00,,,0.00,Wunderground v.1.15,2013-08-15 21:13:00,
2013-08-15 15:23:00,70.9,25.2,29.91,WNW,293,0.0,2.0,18,0.00,,,0.00,Wunderground v.1.15,2013-08-15 21:23:00,
2013-08-15 15:28:00,72.8,25.4,29.91,WNW,290,1.0,2.0,17,0.00,,,0.00,Wunderground v.1.15,2013-08-15 21:28:00,
2013-08-15 15:33:00,72.5,26.5,29.91,West,275,1.0,3.0,18,0.00,,,0.00,Wunderground v.1.15,2013-08-15 21:33:00,
2013-08-15 15:42:00,71.5,24.4,29.90,West,270,2.0,2.0,17,0.00,,,0.00,Wunderground v.1.15,2013-08-15 21:42:00,
2013-08-15 15:48:00,72.0,26.1,29.90,NNW,346,0.0,2.0,18,0.00,,,0.00,Wunderground v.1.15,2013-08-15 21:48:00,
2013-08-15 15:57:00,68.8,24.8,29.90,WNW,283,1.0,1.0,19,0.00,,,0.00,Wunderground v.1.15,2013-08-15 21:57:00,
2013-08-15 16:03:00,70.6,26.3,29.90,WNW,283,1.0,1.0,19,0.00,,,0.00,Wunderground v.1.15,2013-08-15 22:03:00,
2013-08-15 16:08:00,71.3,22.7,29.90,West,279,1.0,1.0,16,0.00,,,0.00,Wunderground v.1.15,2013-08-15 22:08:00,
2013-08-15 16:17:00,70.9,27.8,29.90,WNW,292,1.0,3.0,20,0.00,,,0.00,Wunderground v.1.15,2013-08-15 22:17:00,
2013-08-15 16:22:00,71.6,25.8,29.90,West,267,1.0,1.0,18,0.00,,,0.00,Wunderground v.1.15,2013-08-15 22:22:00,
2013-08-15 16:28:00,70.9,23.9,29.90,West,278,1.0,1.0,17,0.00,,,0.00,Wunderground v.1.15,2013-08-15 22:28:00,
2013-08-15 16:33:00,69.3,23.9,29.90,West,274,0.0,0.0,18,0.00,,,0.00,Wunderground v.1.15,2013-08-15 22:33:00,
2013-08-15 16:43:00,68.4,24.5,29.90,WNW,288,1.0,1.0,19,0.00,,,0.00,Wunderground v.1.15,2013-08-15 22:43:00,
2013-08-15 16:53:00,71.6,24.4,29.90,WNW,292,2.0,3.0,17,0.00,,,0.00,Wunderground v.1.15,2013-08-15 22:53:00,
2013-08-15 17:03:00,72.5,26.5,29.90,NW,314,1.0,3.0,18,0.00,,,0.00,Wunderground v.1.15,2013-08-15 23:03:00,
2013-08-15 17:08:00,72.0,24.8,29.90,West,275,1.0,3.0,17,0.00,,,0.00,Wunderground v.1.15,2013-08-15 23:08:00,
2013-08-15 17:17:00,72.0,23.3,29.90,WNW,282,2.0,2.0,16,0.00,,,0.00,Wunderground v.1.15,2013-08-15 23:17:00,
2013-08-15 17:27:00,71.6,23.0,29.90,NNW,327,1.0,1.0,16,0.00,,,0.00,Wunderground v.1.15,2013-08-15 23:27:00,
2013-08-15 17:32:00,71.8,23.2,29.90,WSW,255,1.0,2.0,16,0.00,,,0.00,Wunderground v.1.15,2013-08-15 23:32:00,
2013-08-15 17:38:00,72.0,23.3,29.90,West,271,1.0,4.0,16,0.00,,,0.00,Wunderground v.1.15,2013-08-15 23:38:00,
2013-08-15 17:43:00,71.3,22.7,29.90,West,279,2.0,2.0,16,0.00,,,0.00,Wunderground v.1.15,2013-08-15 23:43:00,
2013-08-15 17:48:00,71.1,22.6,29.90,NW,317,2.0,2.0,16,0.00,,,0.00,Wunderground v.1.15,2013-08-15 23:48:00,
2013-08-15 17:58:00,71.1,22.6,29.90,WNW,288,1.0,2.0,16,0.00,,,0.00,Wunderground v.1.15,2013-08-15 23:58:00,
2013-08-15 18:03:00,70.9,23.9,29.90,West,271,1.0,1.0,17,0.00,,,0.00,Wunderground v.1.15,2013-08-16 00:03:00,
2013-08-15 18:08:00,70.8,22.3,29.90,WNW,298,1.0,1.0,16,0.00,,,0.00,Wunderground v.1.15,2013-08-16 00:08:00,
2013-08-15 18:18:00,70.6,23.6,29.90,West,267,0.0,0.0,17,0.00,,,0.00,Wunderground v.1.15,2013-08-16 00:18:00,
2013-08-15 18:27:00,69.8,23.0,29.90,WSW,253,0.0,1.0,17,0.00,,,0.00,Wunderground v.1.15,2013-08-16 00:27:00,
2013-08-15 18:38:00,69.1,22.4,29.90,West,266,0.0,0.0,17,0.00,,,0.00,Wunderground v.1.15,2013-08-16 00:38:00,
2013-08-15 18:47:00,67.8,22.7,29.90,West,266,0.0,0.0,18,0.00,,,0.00,Wunderground v.1.15,2013-08-16 00:47:00,
2013-08-15 18:58:00,68.4,21.8,29.90,West,266,0.0,0.0,17,0.00,,,0.00,Wunderground v.1.15,2013-08-16 00:58:00,
2013-08-15 19:08:00,67.1,22.1,29.90,West,266,0.0,0.0,18,0.00,,,0.00,Wunderground v.1.15,2013-08-16 01:08:00,